createdAt,value
2023-03-06T00:00:56.974Z,18.15
2023-03-06T00:03:27.787Z,17.20
2023-03-06T00:05:57.414Z,18.05
2023-03-06T00:08:26.242Z,18.92
2023-03-06T00:10:54.453Z,17.75
2023-03-06T00:13:22.570Z,19.10
2023-03-06T00:15:49.997Z,17.58
2023-03-06T00:18:17.259Z,18.35
2023-03-06T00:20:44.903Z,17.25
2023-03-06T00:23:12.677Z,18.50
2023-03-06T00:25:47.123Z,18.23
2023-03-06T00:28:15.941Z,17.80
2023-03-06T00:30:44.546Z,18.83
2023-03-06T00:33:12.240Z,19.30
2023-03-06T00:35:40.661Z,16.88
2023-03-06T00:38:09.910Z,17.77
2023-03-06T00:40:37.075Z,17.10
2023-03-06T00:43:04.258Z,17.98
2023-03-06T00:45:31.896Z,18.40
2023-03-06T00:47:59.343Z,18.08
2023-03-06T00:50:26.842Z,18.25
2023-03-06T00:52:54.424Z,17.88
2023-03-06T00:55:22.022Z,17.88
2023-03-06T00:57:49.426Z,17.40
2023-03-06T01:00:17.225Z,16.38
2023-03-06T01:02:44.374Z,18.20
2023-03-06T01:05:13.676Z,17.27
2023-03-06T01:07:41.234Z,17.98
2023-03-06T01:10:09.179Z,18.25
2023-03-06T01:12:37.121Z,18.92
2023-03-06T01:15:05.460Z,17.85
2023-03-06T01:17:32.661Z,17.65
2023-03-06T01:19:59.849Z,18.25
2023-03-06T01:22:27.614Z,17.92
2023-03-06T01:24:54.514Z,16.92
2023-03-06T01:27:22.495Z,18.17
2023-03-06T01:29:49.423Z,17.92
2023-03-06T01:32:17.033Z,18.45
2023-03-06T01:34:43.946Z,18.17
2023-03-06T01:37:11.691Z,18.35
2023-03-06T01:39:38.624Z,17.60
2023-03-06T01:42:06.022Z,17.85
2023-03-06T01:44:33.446Z,18.48
2023-03-06T01:47:02.425Z,18.30
2023-03-06T01:49:36.912Z,18.52
2023-03-06T01:52:11.102Z,20.15
2023-03-06T01:55:06.992Z,18.63
2023-03-06T01:57:38.207Z,19.27
2023-03-06T02:00:12.818Z,19.75
2023-03-06T02:03:12.426Z,18.80
2023-03-06T02:05:41.829Z,17.98
2023-03-06T02:08:12.981Z,20.30
2023-03-06T02:10:43.867Z,19.38
2023-03-06T02:13:11.178Z,18.05
2023-03-06T02:15:38.823Z,20.10
2023-03-06T02:18:08.098Z,19.98
2023-03-06T02:20:57.648Z,18.55
2023-03-06T02:23:40.882Z,19.98
2023-03-06T02:26:10.101Z,19.08
2023-03-06T02:28:37.617Z,19.02
2023-03-06T02:31:04.957Z,19.10
2023-03-06T02:33:33.071Z,19.00
2023-03-06T02:36:06.830Z,19.00
2023-03-06T02:38:44.736Z,20.42
2023-03-06T02:41:11.967Z,18.52
2023-03-06T02:43:41.094Z,18.55
2023-03-06T02:46:08.052Z,18.83
2023-03-06T02:48:35.387Z,18.17
2023-03-06T02:51:02.306Z,20.73
2023-03-06T02:53:30.250Z,19.98
2023-03-06T02:55:59.603Z,19.45
2023-03-06T02:58:27.043Z,20.17
2023-03-06T03:00:53.968Z,17.70
2023-03-06T03:03:22.199Z,20.52
2023-03-06T03:05:49.336Z,20.33
2023-03-06T03:08:24.202Z,20.20
2023-03-06T03:10:56.746Z,22.88
2023-03-06T03:13:25.559Z,21.33
2023-03-06T03:16:04.049Z,19.50
2023-03-06T03:18:32.072Z,19.15
2023-03-06T03:20:59.439Z,19.88
2023-03-06T03:23:27.569Z,18.45
2023-03-06T03:26:09.484Z,19.08
2023-03-06T03:28:40.033Z,17.70
2023-03-06T03:31:09.536Z,18.73
2023-03-06T03:33:37.078Z,19.63
2023-03-06T03:36:06.333Z,17.75
2023-03-06T03:38:36.949Z,17.50
2023-03-06T03:41:05.352Z,17.67
2023-03-06T03:43:33.331Z,18.33
2023-03-06T03:46:01.058Z,19.67
2023-03-06T03:48:29.037Z,18.92
2023-03-06T03:51:11.601Z,17.60
2023-03-06T03:53:44.149Z,18.15
2023-03-06T03:56:13.483Z,18.88
2023-03-06T03:58:49.754Z,17.98
2023-03-06T04:01:17.173Z,16.95
2023-03-06T04:03:44.587Z,16.77
2023-03-06T04:06:13.171Z,17.83
2023-03-06T04:08:40.957Z,18.40
2023-03-06T04:11:08.725Z,17.40
2023-03-06T04:13:36.009Z,18.13
2023-03-06T04:16:04.300Z,18.38
2023-03-06T04:18:33.152Z,18.13
2023-03-06T04:21:05.006Z,17.17
2023-03-06T04:23:33.042Z,18.63
2023-03-06T04:26:01.055Z,17.27
2023-03-06T04:28:29.509Z,18.23
2023-03-06T04:30:58.009Z,17.42
2023-03-06T04:33:25.583Z,18.45
2023-03-06T04:35:53.889Z,18.80
2023-03-06T04:38:26.027Z,19.75
2023-03-06T04:40:53.162Z,18.55
2023-03-06T04:43:20.437Z,18.92
2023-03-06T04:45:47.861Z,18.13
2023-03-06T04:48:16.717Z,18.77
2023-03-06T04:50:44.571Z,18.08
2023-03-06T04:53:14.551Z,18.30
2023-03-06T04:55:41.621Z,18.67
2023-03-06T04:58:11.545Z,19.65
2023-03-06T05:00:38.723Z,17.60
2023-03-06T05:03:06.003Z,18.65
2023-03-06T05:05:33.179Z,18.00
2023-03-06T05:08:00.413Z,18.40
2023-03-06T05:10:27.697Z,17.80
2023-03-06T05:12:54.932Z,18.70
2023-03-06T05:15:22.305Z,17.98
2023-03-06T05:17:49.796Z,17.50
2023-03-06T05:20:17.792Z,18.77
2023-03-06T05:22:45.093Z,17.02
2023-03-06T05:25:12.606Z,18.30
2023-03-06T05:27:39.951Z,19.67
2023-03-06T05:30:08.151Z,18.42
2023-03-06T05:32:36.065Z,16.92
2023-03-06T05:35:04.470Z,19.45
2023-03-06T05:37:31.709Z,17.63
2023-03-06T05:39:59.150Z,19.08
2023-03-06T05:42:28.636Z,19.63
2023-03-06T05:44:55.688Z,18.52
2023-03-06T05:47:23.069Z,18.65
2023-03-06T05:49:50.544Z,17.83
2023-03-06T05:52:18.046Z,17.77
2023-03-06T05:54:49.722Z,19.38
2023-03-06T05:57:18.921Z,19.25
2023-03-06T05:59:46.446Z,17.80
2023-03-06T06:02:13.747Z,17.08
2023-03-06T06:04:41.027Z,18.73
2023-03-06T06:07:08.634Z,20.13
2023-03-06T06:09:35.739Z,18.40
2023-03-06T06:12:03.985Z,19.27
2023-03-06T06:14:34.372Z,19.25
2023-03-06T06:17:02.446Z,18.95
2023-03-06T06:19:31.408Z,19.23
2023-03-06T06:21:58.668Z,16.88
2023-03-06T06:24:26.676Z,16.67
2023-03-06T06:26:55.899Z,16.90
2023-03-06T06:29:23.527Z,18.48
2023-03-06T06:31:51.356Z,18.90
2023-03-06T06:34:19.699Z,17.70
2023-03-06T06:36:47.859Z,18.30
2023-03-06T06:39:17.317Z,18.42
2023-03-06T06:42:00.069Z,17.75
2023-03-06T06:44:35.305Z,16.97
2023-03-06T06:47:23.479Z,17.45
2023-03-06T06:49:55.820Z,17.98
2023-03-06T06:52:25.432Z,17.70
2023-03-06T06:54:53.011Z,18.40
2023-03-06T06:57:20.680Z,17.20
2023-03-06T06:59:47.883Z,18.10
2023-03-06T07:02:16.754Z,18.27
2023-03-06T07:05:02.073Z,19.05
2023-03-06T07:07:34.461Z,18.70
2023-03-06T07:10:02.695Z,18.10
2023-03-06T07:12:32.885Z,17.23
2023-03-06T07:15:00.596Z,17.75
2023-03-06T07:17:28.170Z,16.75
2023-03-06T07:19:55.440Z,17.15
2023-03-06T07:22:23.095Z,16.75
2023-03-06T07:24:50.142Z,15.57
2023-03-06T07:27:17.737Z,16.63
2023-03-06T07:29:45.244Z,15.95
2023-03-06T07:32:12.638Z,15.82
2023-03-06T07:34:40.101Z,14.45
2023-03-06T07:37:07.412Z,17.13
2023-03-06T07:39:35.081Z,17.23
2023-03-06T07:42:02.586Z,16.23
2023-03-06T07:44:29.977Z,16.95
2023-03-06T07:46:57.212Z,17.02
2023-03-06T07:49:24.677Z,16.58
2023-03-06T07:51:51.965Z,15.80
2023-03-06T07:54:19.085Z,17.38
2023-03-06T07:56:46.431Z,17.13
2023-03-06T07:59:13.857Z,17.65
2023-03-06T08:01:41.122Z,16.50
2023-03-06T08:04:08.459Z,16.77
2023-03-06T08:06:36.183Z,16.42
2023-03-06T08:09:04.258Z,16.33
2023-03-06T08:11:32.238Z,14.98
2023-03-06T08:13:59.946Z,16.48
2023-03-06T08:16:30.207Z,15.35
2023-03-06T08:18:58.202Z,16.73
2023-03-06T08:21:28.081Z,15.70
2023-03-06T08:23:55.849Z,17.05
2023-03-06T08:26:28.505Z,15.82
2023-03-06T08:28:58.956Z,15.13
2023-03-06T08:31:31.404Z,14.40
2023-03-06T08:34:01.371Z,14.35
2023-03-06T08:36:29.074Z,13.45
2023-03-06T08:38:57.007Z,14.15
2023-03-06T08:41:25.289Z,14.73
2023-03-06T08:43:52.721Z,13.60
2023-03-06T08:46:23.516Z,13.85
2023-03-06T08:48:50.837Z,13.83
2023-03-06T08:51:18.602Z,12.95
2023-03-06T08:53:46.603Z,12.70
2023-03-06T08:56:19.965Z,13.32
2023-03-06T08:58:47.898Z,12.63
2023-03-06T09:01:18.127Z,12.90
2023-03-06T09:03:47.344Z,9.95
2023-03-06T09:06:15.031Z,11.63
2023-03-06T09:08:44.047Z,10.88
2023-03-06T09:11:12.928Z,10.95
2023-03-06T09:13:40.410Z,11.88
2023-03-06T09:16:09.487Z,11.82
2023-03-06T09:18:37.138Z,11.43
2023-03-06T09:21:04.996Z,9.75
2023-03-06T09:23:32.869Z,9.50
2023-03-06T09:26:01.542Z,9.68
2023-03-06T09:28:28.653Z,10.07
2023-03-06T09:30:55.881Z,9.38
2023-03-06T09:33:23.968Z,9.75
2023-03-06T09:35:56.260Z,8.93
2023-03-06T09:38:27.726Z,9.80
2023-03-06T09:40:58.184Z,8.05
2023-03-06T09:43:28.934Z,9.07
2023-03-06T09:48:48.911Z,8.38
2023-03-06T09:51:19.936Z,8.05
2023-03-06T09:53:58.132Z,9.18
2023-03-06T09:56:31.845Z,8.40
2023-03-06T09:59:13.464Z,9.25
2023-03-06T10:01:54.276Z,9.30
2023-03-06T10:04:41.398Z,9.27
2023-03-06T10:07:15.712Z,8.85
2023-03-06T10:10:11.772Z,9.23
2023-03-06T10:12:52.249Z,10.15
2023-03-06T10:15:22.573Z,8.85
2023-03-06T10:17:50.574Z,9.02
2023-03-06T10:20:22.496Z,8.73
2023-03-06T10:23:03.024Z,8.45
2023-03-06T10:25:51.876Z,9.32
2023-03-06T10:28:35.520Z,10.05
2023-03-06T10:31:12.027Z,10.60
2023-03-06T10:33:52.896Z,9.55
2023-03-06T10:36:25.519Z,9.95
2023-03-06T10:38:57.741Z,9.95
2023-03-06T10:41:31.091Z,10.30
2023-03-06T10:44:01.572Z,9.52
2023-03-06T10:46:35.225Z,9.27
2023-03-06T10:49:23.667Z,10.75
2023-03-06T10:52:21.443Z,10.95
2023-03-06T10:54:49.206Z,10.70
2023-03-06T10:57:20.840Z,11.35
2023-03-06T10:59:59.439Z,11.82
2023-03-06T11:02:38.926Z,9.80
2023-03-06T11:05:19.522Z,11.52
2023-03-06T11:07:56.023Z,9.57
2023-03-06T11:10:24.675Z,10.57
2023-03-06T11:13:06.314Z,8.60
2023-03-06T11:15:34.292Z,8.18
2023-03-06T11:18:09.755Z,9.88
2023-03-06T11:20:51.106Z,8.90
2023-03-06T11:23:24.174Z,9.02
2023-03-06T11:26:09.098Z,9.00
2023-03-06T11:28:56.234Z,10.77
2023-03-06T11:31:35.218Z,9.73
2023-03-06T11:34:18.915Z,10.38
2023-03-06T11:37:08.349Z,11.13
2023-03-06T11:40:00.781Z,9.05
2023-03-06T11:42:42.652Z,7.32
2023-03-06T11:45:29.369Z,7.75
2023-03-06T11:48:14.877Z,8.57
2023-03-06T11:50:42.908Z,9.25
2023-03-06T11:53:17.687Z,9.70
2023-03-06T11:56:07.727Z,9.30
2023-03-06T11:58:53.732Z,8.45
2023-03-06T12:01:42.302Z,7.50
2023-03-06T12:04:31.530Z,6.40
2023-03-06T12:07:20.968Z,7.53
2023-03-06T12:10:19.110Z,8.02
2023-03-06T12:12:55.681Z,8.15
2023-03-06T12:15:52.246Z,8.63
2023-03-06T12:18:40.564Z,9.10
2023-03-06T12:21:38.710Z,8.27
2023-03-06T12:24:12.400Z,8.30
2023-03-06T12:27:15.426Z,8.23
2023-03-06T12:30:17.089Z,8.93
2023-03-06T12:33:40.871Z,7.38
2023-03-06T12:36:29.011Z,8.00
2023-03-06T12:39:03.608Z,8.57
2023-03-06T12:41:47.464Z,8.65
2023-03-06T12:44:36.477Z,8.07
2023-03-06T12:47:11.800Z,8.15
2023-03-06T12:49:44.835Z,9.43
2023-03-06T12:52:29.642Z,9.52
2023-03-06T12:55:00.340Z,9.25
2023-03-06T12:57:28.301Z,9.52
2023-03-06T12:59:55.936Z,10.35
2023-03-06T13:02:55.486Z,9.35
2023-03-06T13:05:31.705Z,9.52
2023-03-06T13:08:26.789Z,9.60
2023-03-06T13:11:18.740Z,9.55
2023-03-06T13:13:48.323Z,9.73
2023-03-06T13:16:18.635Z,12.27
2023-03-06T13:18:51.097Z,10.60
2023-03-06T13:21:46.175Z,10.95
2023-03-06T13:24:23.212Z,10.80
2023-03-06T13:26:53.519Z,11.27
2023-03-06T13:29:36.445Z,11.37
2023-03-06T13:32:04.053Z,11.20
2023-03-06T13:34:42.157Z,12.02
2023-03-06T13:37:23.440Z,9.93
2023-03-06T13:39:59.591Z,12.80
2023-03-06T13:42:32.218Z,13.10
2023-03-06T13:45:08.954Z,12.52
2023-03-06T13:48:30.003Z,12.50
2023-03-06T13:50:45.181Z,13.65
2023-03-06T13:53:31.181Z,13.65
2023-03-06T13:56:31.580Z,14.95
2023-03-06T13:59:22.808Z,15.60
2023-03-06T14:02:02.040Z,14.45
2023-03-06T14:04:34.970Z,14.23
2023-03-06T14:07:07.315Z,14.77
2023-03-06T14:09:46.812Z,15.95
2023-03-06T14:12:33.197Z,15.27
2023-03-06T14:15:22.242Z,15.82
2023-03-06T14:18:20.457Z,16.60
2023-03-06T14:21:02.653Z,15.48
2023-03-06T14:23:38.295Z,15.63
2023-03-06T14:26:20.768Z,17.58
2023-03-06T14:28:58.845Z,16.02
2023-03-06T14:31:37.613Z,16.20
2023-03-06T14:34:15.509Z,16.02
2023-03-06T14:36:45.424Z,17.83
2023-03-06T14:39:38.382Z,18.02
2023-03-06T14:42:29.407Z,16.42
2023-03-06T14:45:16.808Z,11.70
2023-03-06T14:47:51.182Z,18.35
2023-03-06T14:50:29.082Z,17.50
2023-03-06T14:52:58.540Z,18.30
2023-03-06T14:55:28.289Z,18.48
2023-03-06T14:58:20.025Z,17.20
2023-03-06T15:00:51.727Z,18.35
2023-03-06T15:03:27.938Z,29.30
2023-03-06T15:05:55.934Z,17.45
2023-03-06T15:08:30.956Z,19.73
2023-03-06T15:11:01.952Z,18.88
2023-03-06T15:13:31.756Z,18.75
2023-03-06T15:16:06.712Z,18.60
2023-03-06T15:18:40.010Z,18.58
2023-03-06T15:21:19.998Z,20.38
2023-03-06T15:23:57.755Z,19.17
2023-03-06T15:26:33.226Z,21.00
2023-03-06T15:29:10.034Z,20.85
2023-03-06T15:31:45.828Z,21.42
2023-03-06T15:34:13.065Z,21.90
2023-03-06T15:36:48.197Z,21.77
2023-03-06T15:39:46.744Z,22.70
2023-03-06T15:42:28.051Z,23.63
2023-03-06T15:45:00.288Z,23.30
2023-03-06T15:47:27.994Z,23.42
2023-03-06T15:49:55.513Z,24.20
2023-03-06T15:52:24.170Z,25.40
2023-03-06T15:54:51.595Z,24.63
2023-03-06T15:57:20.031Z,23.85
2023-03-06T15:59:47.484Z,25.90
2023-03-06T16:02:18.168Z,24.55
2023-03-06T16:04:46.776Z,24.10
2023-03-06T16:07:14.467Z,25.00
2023-03-06T16:09:43.497Z,23.52
2023-03-06T16:12:21.425Z,22.45
2023-03-06T16:14:49.884Z,21.27
2023-03-06T16:17:17.641Z,23.67
2023-03-06T16:19:45.514Z,23.75
2023-03-06T16:22:12.601Z,23.42
2023-03-06T16:24:40.667Z,25.02
2023-03-06T16:27:20.360Z,24.58
2023-03-06T16:29:48.441Z,23.60
2023-03-06T16:32:15.733Z,20.80
2023-03-06T16:34:44.292Z,24.30
2023-03-06T16:37:13.733Z,24.15
2023-03-06T16:39:41.568Z,24.30
2023-03-06T16:42:08.675Z,23.95
2023-03-06T16:44:35.960Z,23.92
2023-03-06T16:47:03.369Z,23.90
2023-03-06T16:49:32.773Z,25.75
2023-03-06T16:52:00.592Z,24.42
2023-03-06T16:54:28.913Z,23.73
2023-03-06T16:56:55.859Z,24.92
2023-03-06T16:59:25.031Z,24.10
2023-03-06T17:01:51.967Z,24.02
2023-03-06T17:04:19.612Z,23.13
2023-03-06T17:06:46.611Z,23.02
2023-03-06T17:09:14.508Z,24.48
2023-03-06T17:11:43.495Z,23.17
2023-03-06T17:14:11.194Z,21.70
2023-03-06T17:16:40.422Z,23.25
2023-03-06T17:19:11.997Z,22.67
2023-03-06T17:21:39.795Z,21.10
2023-03-06T17:24:07.558Z,22.77
2023-03-06T17:26:36.589Z,22.23
2023-03-06T17:29:06.868Z,21.33
2023-03-06T17:31:34.470Z,23.13
2023-03-06T17:34:02.126Z,23.08
2023-03-06T17:36:31.469Z,22.08
2023-03-06T17:39:00.661Z,20.25
2023-03-06T17:41:30.087Z,22.55
2023-03-06T17:43:59.380Z,22.20
2023-03-06T17:46:32.943Z,23.85
2023-03-06T17:49:00.968Z,22.92
2023-03-06T17:51:28.049Z,21.15
2023-03-06T17:53:56.613Z,24.30
2023-03-06T17:56:23.893Z,24.65
2023-03-06T17:58:51.657Z,21.92
2023-03-06T18:01:22.275Z,23.02
2023-03-06T18:03:51.504Z,22.88
2023-03-06T18:06:20.742Z,23.42
2023-03-06T18:08:52.776Z,23.63
2023-03-06T18:11:21.211Z,23.35
2023-03-06T18:13:49.240Z,22.27
2023-03-06T18:16:20.381Z,23.98
2023-03-06T18:18:55.178Z,21.20
2023-03-06T18:21:24.956Z,23.77
2023-03-06T18:23:52.487Z,24.42
2023-03-06T18:26:19.536Z,22.23
2023-03-06T18:28:52.174Z,22.52
2023-03-06T18:31:24.440Z,21.88
2023-03-06T18:33:53.607Z,23.23
2023-03-06T18:36:22.920Z,24.65
2023-03-06T18:38:51.786Z,23.03
2023-03-06T18:41:21.000Z,24.52
2023-03-06T18:43:53.880Z,24.63
2023-03-06T18:46:22.413Z,22.30
2023-03-06T18:48:49.813Z,22.27
2023-03-06T18:51:17.279Z,22.88
2023-03-06T18:53:45.967Z,23.08
2023-03-06T18:56:19.820Z,23.45
2023-03-06T18:58:48.680Z,23.02
2023-03-06T19:01:16.134Z,23.48
2023-03-06T19:03:46.573Z,22.48
2023-03-06T19:06:17.019Z,23.60
2023-03-06T19:08:44.724Z,22.77
2023-03-06T19:11:16.936Z,22.08
2023-03-06T19:13:44.897Z,23.52
2023-03-06T19:16:22.357Z,23.02
2023-03-06T19:18:50.375Z,21.15
2023-03-06T19:21:22.045Z,22.45
2023-03-06T19:23:49.843Z,21.38
2023-03-06T19:26:18.866Z,20.77
2023-03-06T19:28:47.660Z,19.98
2023-03-06T19:31:26.861Z,20.42
2023-03-06T19:33:57.080Z,19.48
2023-03-06T19:36:28.021Z,19.20
2023-03-06T19:38:59.849Z,19.60
2023-03-06T19:41:28.110Z,20.13
2023-03-06T19:43:58.358Z,18.40
2023-03-06T19:46:26.770Z,16.90
2023-03-06T19:48:56.326Z,15.82
2023-03-06T19:51:24.941Z,15.57
2023-03-06T19:53:52.764Z,13.75
2023-03-06T19:56:22.840Z,14.15
2023-03-06T19:58:50.956Z,14.18
2023-03-06T20:01:21.537Z,13.90
2023-03-06T20:06:20.063Z,13.80
2023-03-06T20:08:48.088Z,13.68
2023-03-06T20:11:24.385Z,12.93
2023-03-06T20:13:52.790Z,14.23
2023-03-06T20:16:20.119Z,13.38
2023-03-06T20:18:47.393Z,13.50
2023-03-06T20:21:15.620Z,13.43
2023-03-06T20:23:43.374Z,12.57
2023-03-06T20:26:12.524Z,13.60
2023-03-06T20:28:41.035Z,13.00
2023-03-06T20:31:08.671Z,13.15
2023-03-06T20:33:36.974Z,12.35
2023-03-06T20:36:04.406Z,11.90
2023-03-06T20:38:32.015Z,12.15
2023-03-06T20:40:59.740Z,11.02
2023-03-06T20:43:27.583Z,10.85
2023-03-06T20:46:02.656Z,11.40
2023-03-06T20:48:30.345Z,11.20
2023-03-06T20:51:11.253Z,10.77
2023-03-06T20:53:38.844Z,10.90
2023-03-06T20:56:06.627Z,10.82
2023-03-06T20:58:36.211Z,11.40
2023-03-06T21:01:03.072Z,10.00
2023-03-06T21:03:30.955Z,11.07
2023-03-06T21:05:58.298Z,9.48
2023-03-06T21:08:25.973Z,10.80
2023-03-06T21:10:52.964Z,10.40
2023-03-06T21:13:21.339Z,11.25
2023-03-06T21:15:48.231Z,10.95
2023-03-06T21:18:15.879Z,11.40
2023-03-06T21:20:43.053Z,11.32
2023-03-06T21:23:10.910Z,10.73
2023-03-06T21:25:50.882Z,12.23
2023-03-06T21:28:19.126Z,12.30
2023-03-06T21:30:46.185Z,12.93
2023-03-06T21:33:16.052Z,14.18
2023-03-06T21:35:44.815Z,12.85
2023-03-06T21:38:13.591Z,14.20
2023-03-06T21:40:41.302Z,13.65
2023-03-06T21:43:09.463Z,14.65
2023-03-06T21:45:36.532Z,12.73
2023-03-06T21:48:04.646Z,14.75
2023-03-06T21:50:31.521Z,13.60
2023-03-06T21:52:59.040Z,15.00
2023-03-06T21:55:26.026Z,16.35
2023-03-06T21:57:55.068Z,15.45
2023-03-06T22:00:25.885Z,15.45
2023-03-06T22:02:53.370Z,16.15
2023-03-06T22:05:20.232Z,16.35
2023-03-06T22:07:47.556Z,16.20
2023-03-06T22:10:15.863Z,17.92
2023-03-06T22:12:45.780Z,19.15
2023-03-06T22:15:12.714Z,20.25
2023-03-06T22:17:41.703Z,19.27
2023-03-06T22:20:09.770Z,18.83
2023-03-06T22:22:36.957Z,19.10
2023-03-06T22:25:05.058Z,20.92
2023-03-06T22:27:32.821Z,20.27
2023-03-06T22:29:59.711Z,20.80
2023-03-06T22:32:27.186Z,20.48
2023-03-06T22:34:54.057Z,19.67
2023-03-06T22:37:21.435Z,18.95
2023-03-06T22:39:48.320Z,20.08
2023-03-06T22:42:15.471Z,20.05
2023-03-06T22:44:42.396Z,22.00
2023-03-06T22:47:09.763Z,21.60
2023-03-06T22:49:37.559Z,23.08
2023-03-06T22:52:04.851Z,19.23
2023-03-06T22:54:32.654Z,22.23
2023-03-06T22:57:00.217Z,22.85
2023-03-06T22:59:27.813Z,19.92
2023-03-06T23:01:54.986Z,22.38
2023-03-06T23:04:22.048Z,22.60
2023-03-06T23:06:49.384Z,21.77
2023-03-06T23:09:22.445Z,22.50
2023-03-06T23:12:09.212Z,22.70
2023-03-06T23:14:55.337Z,21.30
2023-03-06T23:17:41.461Z,22.35
2023-03-06T23:20:27.172Z,21.45
2023-03-06T23:23:13.212Z,22.55
2023-03-06T23:25:44.241Z,22.47
2023-03-06T23:28:12.220Z,20.67
2023-03-06T23:30:39.754Z,22.27
2023-03-06T23:33:08.139Z,20.08
2023-03-06T23:35:36.848Z,19.52
2023-03-06T23:38:04.981Z,19.70
2023-03-06T23:40:34.057Z,19.90
2023-03-06T23:43:02.658Z,19.92
2023-03-06T23:45:29.970Z,19.33
2023-03-06T23:47:58.188Z,24.05
2023-03-06T23:50:26.269Z,20.17
2023-03-06T23:52:54.847Z,19.45
2023-03-06T23:55:22.716Z,18.77
2023-03-06T23:57:50.568Z,20.83
